Cincinnati (CVG/KCVG)

Map

Information

Location
Cincinnati, KY
Local Time
20:10 / 8:10 pm
GMT Time
00:10 / 12:10 am
Gates
No FAA reported delays
METAR KCVG 252352Z 16007KT 10SM FEW045 SCT250 21/14 A2968 RMK AO2 SLP043 T02110144 10239 20211 58009
TAF KCVG 252332Z 2600/2706 16006KT P6SM SCT050 FM260300 14005KT P6SM SCT250 FM261500 17010KT P6SM SCT250 FM270200 16010KT P6SM SCT200 WS020/18035KT